Date,TemperatureHighF,TemperatureAvgF,TemperatureLowF,DewpointHighF,DewpointAvgF,DewpointLowF,HumidityHigh,HumidityAvg,HumidityLow,PressureMaxIn,PressureMinIn,WindSpeedMaxMPH,WindSpeedAvgMPH,GustSpeedMaxMPH,PrecipitationSumIn
2013-1-1,43.7,41.1,37.8,40.3,38.3,35.8,93,90,86,30.11,29.56,3,0,20,0.00
2013-1-2,54.3,51.0,43.7,54.0,50.2,40.7,99,97,89,30.32,30.10,3,0,21,0.00
2013-1-3,56.5,53.4,50.4,55.5,52.3,48.7,99,96,91,30.57,30.33,2,0,13,0.00
2013-1-4,51.8,49.4,46.6,50.0,47.8,44.7,99,94,90,30.61,30.49,5,0,18,0.00
2013-1-5,53.1,49.6,46.2,52.8,49.3,46.0,99,99,99,30.50,30.41,12,1,23,0.01
2013-1-6,50.7,48.7,47.7,50.4,48.5,47.4,99,99,99,30.50,30.26,9,2,20,0.00
2013-1-7,51.3,49.9,48.2,51.0,49.7,47.9,99,99,99,30.26,30.07,13,3,24,0.07
2013-1-8,52.2,48.3,41.9,51.9,47.6,41.4,99,97,89,30.30,30.06,5,0,17,0.00
2013-1-9,47.5,42.5,39.6,44.1,40.9,37.7,99,94,87,30.29,30.10,5,0,11,0.00
2013-1-10,45.9,43.2,38.5,45.6,42.4,36.9,99,97,91,30.09,29.96,5,0,13,0.06
2013-1-11,47.1,43.8,38.1,46.9,43.4,37.6,99,98,96,30.08,29.83,7,1,13,0.02
2013-1-12,47.1,44.7,41.2,46.9,42.2,33.9,99,91,75,30.11,29.80,10,4,23,0.00
2013-1-13,41.2,39.3,37.2,39.3,35.3,30.6,99,86,69,30.20,30.11,3,0,12,0.04
2013-1-14,43.3,40.3,35.8,42.7,38.9,34.7,99,95,82,30.13,29.90,0,0,17,0.04
2013-1-15,43.2,37.5,33.6,40.8,36.4,33.4,99,96,87,29.96,29.78,9,1,15,0.00
2013-1-16,43.2,41.9,41.2,42.9,40.0,37.8,99,93,86,29.91,29.76,12,5,23,0.15
2013-1-17,45.7,44.2,42.4,45.4,43.9,42.2,99,99,99,29.91,29.58,21,9,35,0.14
2013-1-18,42.4,38.6,36.7,42.2,38.4,36.4,99,99,99,29.57,29.29,24,19,40,1.67
2013-1-19,39.9,37.5,36.5,39.7,36.6,32.1,99,96,81,29.62,29.34,14,7,24,0.15
2013-1-20,38.8,38.1,37.6,32.4,31.2,29.0,81,76,69,29.62,29.41,15,11,27,0.00
2013-1-21,39.2,37.0,33.4,38.2,35.2,30.9,99,94,76,29.41,29.35,13,1,21,0.21
2013-1-22,37.8,35.1,32.0,37.5,34.9,31.8,99,99,99,29.77,29.40,0,0,10,0.06
2013-1-23,39.9,39.0,37.8,39.1,36.3,33.4,99,90,83,29.88,29.76,10,3,21,0.01
2013-1-24,42.8,40.5,37.4,40.6,37.8,33.5,92,90,85,30.04,29.88,14,4,29,0.00
2013-1-25,46.6,44.4,42.8,46.3,43.8,41.1,99,98,93,29.96,29.39,15,9,37,0.60
2013-1-26,50.4,44.1,37.8,50.1,43.5,37.2,99,98,94,29.74,29.05,20,4,30,0.02
2013-1-27,52.7,43.0,39.4,52.4,39.6,35.1,99,88,74,29.45,29.02,8,3,30,0.14
2013-1-28,47.1,41.7,39.6,45.8,37.7,35.3,97,86,80,29.57,29.23,26,6,44,0.39
2013-1-29,57.9,51.1,47.5,56.1,47.0,42.1,99,86,80,29.39,29.17,6,2,28,0.04
2013-1-30,48.7,46.2,43.5,43.1,40.1,36.6,88,79,65,29.86,29.37,8,2,31,0.15
2013-1-31,48.7,45.3,42.4,43.6,39.3,37.5,86,79,69,29.77,29.56,21,3,40,0.83
2013-2-1,45.1,42.6,36.5,41.3,36.9,30.3,87,80,74,29.90,29.45,5,0,31,0.00
2013-2-2,44.6,38.7,34.5,35.9,32.2,30.1,86,78,62,30.32,29.92,1,0,15,0.00
2013-2-3,51.6,48.1,42.3,51.1,46.0,36.4,99,93,77,30.21,29.86,2,0,27,0.07
2013-2-4,50.1,45.6,36.2,48.6,36.0,21.3,97,72,32,29.94,29.02,6,1,28,0.04
2013-2-5,45.0,39.0,34.2,39.8,34.3,30.1,89,83,74,29.73,29.45,5,1,29,0.02
2013-2-6,44.9,40.1,35.6,35.1,31.5,28.3,81,72,57,30.30,29.75,3,0,20,0.00
2013-2-7,43.2,37.8,34.0,41.2,35.1,29.4,97,90,81,30.31,29.95,1,0,13,0.14
2013-2-8,45.7,42.3,39.4,43.5,40.2,37.5,97,92,88,30.32,30.21,0,0,13,0.00
2013-2-9,49.2,45.1,42.1,48.9,44.1,39.7,99,96,93,30.24,29.75,0,0,9,0.09
2013-2-10,45.7,43.8,41.4,45.4,43.4,41.1,99,98,94,29.73,29.23,7,1,15,0.71
2013-2-11,42.1,40.1,39.4,41.8,39.7,39.0,99,99,97,29.85,29.27,6,0,13,0.12
2013-2-12,42.1,40.0,39.0,41.6,39.7,38.8,99,99,98,30.04,29.86,10,2,23,0.05
2013-2-13,52.3,46.3,42.4,52.1,46.0,41.6,99,99,98,30.02,29.70,13,6,29,0.15
2013-2-14,50.5,45.6,41.7,48.7,42.3,37.9,99,89,72,30.07,29.72,1,0,16,0.01
2013-2-15,49.5,43.6,39.2,45.5,40.6,37.2,98,89,83,30.18,30.07,0,0,10,0.00
2013-2-16,50.5,46.1,43.2,50.2,45.2,39.6,99,97,87,30.14,30.08,9,2,24,0.00
2013-2-17,48.7,45.7,44.1,46.3,43.1,36.3,99,91,74,30.09,30.00,12,8,25,0.00
2013-2-18,48.0,44.7,42.6,39.4,37.8,35.4,83,77,70,30.12,30.01,12,5,25,0.00
2013-2-19,49.8,43.9,40.3,43.3,39.4,36.7,90,85,72,30.14,30.08,1,0,11,0.00
2013-2-20,46.9,42.9,37.9,42.7,38.8,35.7,99,86,75,30.18,30.09,15,6,25,0.01
2013-2-21,40.6,38.1,36.9,33.3,30.2,27.6,77,73,67,30.23,30.18,16,9,25,0.00
2013-2-22,37.6,36.6,34.9,27.8,25.9,24.3,68,65,60,30.29,30.20,7,1,17,0.00
2013-2-23,38.7,36.8,35.4,31.7,27.9,22.6,82,70,56,30.36,30.28,1,0,11,0.04
2013-2-24,43.7,38.4,35.4,32.8,30.0,27.1,84,72,58,30.49,30.36,2,0,12,0.02
2013-2-25,46.2,40.4,35.1,36.9,33.6,29.0,89,77,62,30.61,30.48,1,0,8,0.04
2013-2-26,43.9,42.4,40.1,38.0,37.1,35.4,88,82,76,30.69,30.57,1,0,11,0.00
2013-2-27,45.7,42.4,39.2,38.3,36.6,34.8,86,80,72,30.71,30.64,1,0,10,0.00
2013-2-28,45.5,41.9,37.4,43.5,38.7,34.2,98,88,83,30.65,30.53,1,0,12,0.00
2013-3-1,50.5,44.5,37.9,43.8,39.0,31.6,99,82,63,30.56,30.52,1,0,11,0.00
2013-3-2,47.5,42.1,37.2,38.0,34.3,32.0,86,74,62,30.52,30.33,0,0,6,0.00
2013-3-3,49.5,43.9,40.8,40.6,36.5,34.5,80,75,67,30.33,30.08,6,1,17,0.00
2013-3-4,46.2,41.9,37.2,36.4,34.5,31.8,85,75,66,30.08,29.76,7,2,17,0.00
2013-3-5,50.2,42.8,35.6,44.3,38.7,32.6,93,85,75,29.76,29.59,1,0,8,0.00
2013-3-6,48.4,45.7,44.8,45.8,43.6,40.5,99,93,84,29.59,29.50,6,1,14,0.10
2013-3-7,46.2,45.6,44.9,46.0,45.4,44.6,99,99,99,29.49,29.33,8,2,22,0.23
2013-3-8,47.3,46.2,45.0,47.1,45.9,44.7,99,99,99,29.54,29.31,17,6,26,0.10
2013-3-9,45.3,43.4,41.0,45.1,43.2,40.7,99,99,99,29.73,29.53,5,0,21,0.02
2013-3-10,41.2,39.3,35.2,40.6,32.2,15.6,99,78,44,29.97,29.74,12,6,31,0.01
2013-3-11,37.1,34.2,31.1,26.6,18.0,14.1,78,52,43,30.10,29.98,5,1,28,0.00
2013-3-12,43.0,37.2,33.4,28.8,21.7,12.8,75,54,42,30.12,30.01,2,0,16,0.00
2013-3-13,44.8,38.0,32.5,38.5,32.3,27.7,99,81,59,30.10,29.99,0,0,13,0.00
2013-3-14,48.0,39.9,31.5,39.6,33.9,26.5,93,79,68,30.11,29.78,0,0,13,0.01
2013-3-15,49.3,44.8,37.9,39.0,35.8,31.4,79,71,59,29.76,29.38,7,0,20,0.04
2013-3-16,45.9,39.8,35.1,38.4,33.6,30.9,96,79,64,29.38,29.30,1,0,9,0.01
2013-3-17,42.1,37.6,34.9,41.8,36.1,31.8,99,94,85,29.32,29.15,0,0,6,0.05
2013-3-18,45.5,40.5,37.0,41.1,37.3,32.2,99,89,67,29.47,29.20,6,0,15,0.06
2013-3-19,39.6,37.2,34.7,39.3,35.1,29.9,99,93,74,29.54,29.46,0,0,15,0.38
2013-3-20,44.8,39.3,35.8,44.5,38.3,35.5,99,96,89,29.92,29.55,12,1,20,0.08
2013-3-21,42.8,41.5,39.9,39.3,34.9,32.3,97,78,68,29.93,29.63,29,19,43,4.27
2013-3-22,42.1,41.0,38.3,41.8,40.7,38.0,99,99,98,29.73,29.53,30,19,44,2.80
2013-3-23,39.6,38.4,37.0,38.6,35.8,31.1,99,91,79,29.96,29.73,16,10,27,0.04
2013-3-24,37.4,36.5,35.4,31.1,27.2,23.6,79,69,60,30.09,29.96,18,12,33,0.07
2013-3-25,41.4,37.9,35.6,24.8,23.5,20.9,62,56,49,30.14,30.09,17,5,33,0.02
2013-3-26,40.1,36.6,34.2,27.5,24.6,21.2,70,62,54,30.14,30.06,8,1,24,0.00
2013-3-27,38.8,35.8,33.6,31.3,27.8,21.1,85,73,54,30.06,30.02,12,1,22,0.00
2013-3-28,40.8,37.3,33.6,28.4,25.4,21.2,78,63,49,30.04,29.95,14,3,24,0.00
2013-3-29,42.4,38.3,35.4,22.9,20.6,18.5,54,49,40,29.95,29.86,16,2,25,0.00
2013-3-30,45.7,40.2,36.0,24.2,20.2,17.3,53,45,33,29.99,29.89,6,1,21,0.00
2013-3-31,43.3,40.8,39.0,28.0,25.6,21.8,64,55,47,29.97,29.86,15,8,28,0.00
2013-4-1,41.0,39.1,37.2,26.8,24.2,21.8,61,55,49,29.98,29.86,17,9,27,0.04
2013-4-2,47.3,41.1,35.6,29.6,24.9,21.7,61,53,42,30.18,29.98,6,0,22,0.00
2013-4-3,48.4,42.5,36.7,31.2,27.9,25.0,67,57,43,30.26,30.18,1,0,17,0.00
2013-4-4,48.0,42.9,37.9,30.9,26.7,24.3,67,53,44,30.24,30.20,0,0,15,0.00
2013-4-5,47.4,42.8,38.7,33.9,27.9,23.3,72,56,41,30.31,30.20,1,0,18,0.00
2013-4-6,51.1,42.4,34.9,32.1,29.3,26.1,73,61,44,30.37,30.25,0,0,13,0.00
2013-4-7,46.7,42.3,37.6,36.8,33.1,29.0,82,70,58,30.26,29.85,9,1,22,0.00
2013-4-8,48.0,44.1,42.1,34.9,32.5,29.4,72,64,56,29.83,29.53,14,6,29,0.00
2013-4-9,50.0,42.5,38.3,35.8,33.2,31.4,77,70,56,29.64,29.50,12,2,29,0.00
2013-4-10,47.3,44.3,41.9,42.7,39.0,35.2,88,81,75,29.65,29.50,6,0,15,0.01
2013-4-11,46.8,44.5,42.4,46.5,41.6,38.4,99,90,77,29.50,29.30,9,1,17,0.35
2013-4-12,54.0,46.1,42.4,49.7,42.6,38.3,99,88,66,29.72,29.31,0,0,10,0.04
2013-4-13,47.5,45.2,42.4,47.2,42.4,37.5,99,90,81,29.73,29.45,16,4,28,0.05
2013-4-14,56.3,50.8,47.1,52.4,46.9,43.5,99,87,71,29.62,29.45,16,2,35,0.09
2013-4-15,60.8,52.0,47.5,44.8,42.9,37.7,89,72,45,29.85,29.57,13,3,30,0.04
2013-4-16,59.2,52.9,47.7,47.5,35.5,26.4,92,55,29,29.96,29.55,3,0,29,0.02
2013-4-17,56.1,49.9,46.6,53.8,43.9,33.0,99,81,57,29.93,29.28,18,4,41,2.28
2013-4-18,53.9,48.7,45.1,41.7,39.8,37.7,82,72,56,30.11,29.34,7,0,35,0.32
2013-4-19,56.7,47.5,39.9,42.5,38.1,34.2,83,71,53,30.51,30.13,0,0,13,0.00
2013-4-20,54.1,48.1,41.7,44.6,40.8,35.7,82,76,70,30.51,30.27,7,0,21,0.00
2013-4-21,57.0,50.3,45.9,42.7,38.9,35.3,77,65,47,30.26,29.99,1,0,20,0.00
2013-4-22,60.8,51.7,46.0,50.2,43.0,37.2,82,72,58,30.01,29.85,5,0,20,0.00
2013-4-23,65.1,55.2,47.8,46.6,44.3,41.0,82,68,47,30.17,29.98,0,0,13,0.00
2013-4-24,57.7,52.3,46.2,50.3,45.9,41.7,85,79,71,30.30,30.07,0,0,17,0.08
2013-4-25,58.2,48.9,45.1,48.7,41.6,34.5,96,78,50,30.27,30.14,0,0,15,0.16
2013-4-26,52.8,42.9,19.0,37.8,31.2,9.9,80,64,48,30.20,30.07,3,0,21,0.04
2013-4-27,55.9,48.0,40.8,37.6,35.6,32.3,76,63,50,30.23,30.11,1,0,15,0.00
2013-4-28,57.0,49.1,43.3,44.8,38.2,33.4,79,66,50,30.16,29.87,2,0,20,0.00
2013-4-29,59.9,48.8,41.0,38.8,34.8,27.4,79,60,35,30.27,29.93,1,0,17,0.00
2013-4-30,56.5,48.2,38.8,40.0,36.7,32.5,80,65,52,30.40,30.29,0,0,9,0.00
2013-5-1,59.9,51.0,44.2,47.1,40.7,35.2,79,68,55,30.34,30.29,0,0,8,0.00
2013-5-2,56.7,50.5,43.3,49.4,43.3,37.6,91,77,64,30.35,30.18,1,0,15,0.00
2013-5-3,59.2,55.1,50.7,46.1,43.8,42.2,77,66,56,30.17,29.90,0,0,14,0.01
2013-5-4,62.1,53.6,48.0,46.5,41.5,38.9,82,65,44,30.04,29.85,1,0,17,0.01
2013-5-5,64.2,57.6,52.5,49.6,47.0,43.0,77,68,58,30.13,30.04,1,0,11,0.00
2013-5-6,57.7,53.3,50.1,50.7,46.1,43.1,84,77,67,30.13,30.05,2,0,20,0.02
2013-5-7,63.1,54.5,48.4,50.1,45.4,42.4,87,72,53,30.08,29.75,1,0,8,0.00
2013-5-8,58.8,53.0,49.1,54.2,45.5,37.0,95,76,57,29.73,29.34,21,6,48,0.14
2013-5-9,56.4,50.0,47.1,47.2,41.9,37.4,83,74,63,29.57,29.24,22,7,36,1.35
2013-5-10,58.6,52.0,47.1,48.5,40.8,29.0,84,67,34,29.77,29.58,2,0,23,0.12
2013-5-11,54.0,49.6,45.9,45.1,39.2,34.6,82,68,51,29.99,29.71,2,0,30,0.06
2013-5-12,58.7,50.9,43.9,49.5,42.7,35.5,82,73,66,30.01,29.82,1,0,21,0.06
2013-5-13,53.2,48.2,44.2,40.5,36.4,33.5,73,64,52,29.88,29.76,1,0,29,0.05
2013-5-14,57.2,48.3,42.8,40.1,37.0,33.4,77,66,43,29.76,29.40,0,0,15,0.00
2013-5-15,53.8,47.3,42.6,39.7,37.6,35.1,79,69,50,29.57,29.44,1,0,21,0.01
2013-5-16,53.6,46.8,40.6,45.0,38.2,32.6,78,72,62,29.66,29.52,1,0,14,0.07
2013-5-17,58.3,50.3,43.7,45.3,40.4,36.1,83,70,49,29.95,29.66,1,0,16,0.00
2013-5-18,54.9,50.7,46.8,45.3,41.6,36.3,81,71,59,29.94,29.75,0,0,13,0.00
2013-5-19,64.9,55.6,49.3,49.7,45.4,40.4,82,70,48,30.08,29.82,0,0,2,0.00
2013-5-20,61.3,56.3,51.8,51.5,47.6,42.7,77,73,64,30.16,30.05,1,0,17,0.00
2013-5-21,65.4,55.3,48.4,45.2,43.5,41.2,77,65,47,30.23,30.15,1,0,21,0.00
2013-5-22,58.5,53.0,48.9,45.9,38.2,31.5,82,59,38,30.29,30.22,1,0,20,0.00
2013-5-23,52.8,46.9,41.9,38.3,34.5,30.3,74,62,45,30.23,30.11,1,0,28,0.01
2013-5-24,58.8,50.2,43.3,38.0,35.5,32.9,71,58,42,30.25,30.06,2,0,23,0.00
2013-5-25,59.2,53.0,44.6,45.1,41.9,36.4,77,66,56,30.27,30.21,1,0,12,0.00
2013-5-26,59.5,55.0,51.4,49.3,46.2,43.4,81,73,64,30.21,29.85,7,0,20,0.00
2013-5-27,58.3,51.8,48.7,50.6,46.0,42.8,88,81,70,29.84,29.49,12,1,27,0.16
2013-5-28,61.2,52.4,45.1,48.3,44.1,39.3,81,74,60,29.70,29.54,0,0,8,0.06
2013-5-29,69.6,57.5,49.3,49.7,45.5,40.9,84,66,46,30.02,29.69,1,0,18,0.14
2013-5-30,71.8,60.5,50.9,45.5,42.1,40.2,70,52,33,30.18,30.02,1,0,21,0.00
2013-5-31,63.0,56.4,49.3,51.2,44.5,35.0,77,65,50,30.33,30.18,0,0,10,0.00
2013-6-1,62.0,55.6,46.9,45.4,41.1,34.7,70,59,50,30.44,30.33,0,0,12,0.00
2013-6-2,61.7,56.3,51.3,48.0,43.6,37.0,73,63,56,30.52,30.43,0,0,7,0.00
2013-6-3,68.6,60.7,53.1,53.2,47.9,41.7,78,64,44,30.55,30.51,0,0,6,0.00
2013-6-4,70.3,60.5,51.8,51.3,44.8,37.6,78,58,34,30.51,30.32,0,0,8,0.00
2013-6-5,66.9,59.9,51.6,51.2,46.3,43.6,78,61,45,30.31,30.18,0,0,12,0.00
2013-6-6,66.6,58.8,51.4,51.3,47.7,44.8,80,67,51,30.29,30.19,1,0,13,0.00
2013-6-7,68.9,61.3,54.5,50.9,46.8,41.6,77,60,42,30.34,30.30,1,0,11,0.00
2013-6-8,66.2,60.3,54.5,51.3,46.6,40.0,76,61,49,30.32,30.15,1,0,11,0.00
2013-6-9,68.4,59.9,52.2,50.4,45.8,39.1,73,60,47,30.16,30.00,0,0,2,0.00
2013-6-10,63.0,57.4,52.5,50.2,46.5,39.9,79,67,59,30.00,29.87,7,1,21,0.00
2013-6-11,58.5,54.9,52.3,57.3,52.1,48.0,96,90,80,29.87,29.69,15,4,25,0.10
2013-6-12,63.7,56.6,54.0,57.8,50.7,45.7,99,81,64,29.75,29.59,0,0,11,0.00
2013-6-13,65.1,56.7,50.5,52.8,45.7,39.8,83,67,47,29.95,29.58,0,0,23,0.01
2013-6-14,59.3,54.7,50.5,51.8,46.6,42.6,80,74,70,29.95,29.45,21,3,41,1.12
2013-6-15,66.4,57.4,49.1,48.2,44.1,39.3,78,62,37,29.77,29.53,0,0,17,0.00
2013-6-16,61.5,56.1,52.7,50.6,47.2,45.2,77,72,65,30.00,29.77,3,0,17,0.06
2013-6-17,61.2,55.9,52.2,54.8,47.9,44.2,80,74,71,30.08,30.00,0,0,9,0.07
2013-6-18,70.7,62.3,52.3,54.0,49.3,44.8,78,63,47,30.06,30.00,0,0,6,0.00
2013-6-19,68.5,60.4,54.0,48.5,45.7,42.6,74,59,40,30.12,30.03,0,0,9,0.00
2013-6-20,70.4,61.3,55.0,50.3,47.1,43.9,73,60,46,30.08,29.84,0,0,11,0.00
2013-6-21,68.5,60.9,55.0,52.3,49.9,45.8,77,68,44,29.90,29.64,5,0,20,0.01
2013-6-22,63.7,58.6,54.0,50.4,47.8,45.8,79,68,54,29.64,29.47,3,0,21,0.02
2013-6-23,59.2,56.2,53.4,48.1,45.6,39.8,74,68,56,30.18,29.62,3,0,30,0.04
2013-6-24,63.6,56.4,49.6,45.9,42.7,38.2,76,61,39,30.34,30.18,1,0,12,0.00
2013-6-25,64.4,59.7,52.5,51.5,48.4,42.0,72,67,57,30.48,30.34,0,0,6,0.00
2013-6-26,68.4,61.1,53.8,50.7,46.0,41.9,74,59,44,30.56,30.48,0,0,17,0.00
2013-6-27,64.8,58.5,53.4,58.1,50.4,43.7,80,74,64,30.53,30.30,0,0,13,0.04
2013-6-28,65.8,61.6,56.3,56.3,53.0,46.3,79,74,67,30.30,30.15,0,0,17,0.00
2013-6-29,74.9,61.2,53.2,58.3,49.8,44.0,74,67,52,30.29,30.24,0,0,15,0.00
2013-6-30,67.0,61.3,55.6,52.6,47.1,39.7,68,60,45,30.28,30.04,0,0,18,0.00
2013-7-1,65.8,58.6,53.1,48.2,43.4,40.1,71,58,41,30.07,29.97,0,0,9,0.00
2013-7-2,60.3,57.5,55.0,53.4,49.4,42.5,80,74,57,29.97,29.52,10,1,28,0.10
2013-7-3,68.0,61.4,54.7,53.1,51.0,48.0,79,69,55,29.91,29.57,0,0,10,0.00
2013-7-4,69.8,63.8,57.2,54.9,47.1,41.0,78,56,40,30.31,29.88,0,0,17,0.00
2013-7-5,67.8,60.8,54.3,50.3,47.1,42.5,74,61,46,30.45,30.31,1,0,13,0.00
2013-7-6,68.7,59.9,42.4,52.9,49.3,42.2,99,69,57,30.50,29.31,5,0,15,0.00
2013-7-7,74.7,67.6,61.9,58.4,55.5,51.6,77,66,53,30.64,30.52,0,0,11,0.00
2013-7-8,78.3,67.3,60.6,55.5,52.7,51.2,72,61,42,30.64,30.56,0,0,8,0.00
2013-7-9,83.1,72.7,60.3,58.3,52.6,46.5,76,52,29,30.55,30.42,0,0,3,0.00
2013-7-10,72.0,66.0,61.9,56.8,54.7,53.5,75,67,56,30.42,30.37,0,0,13,0.00
2013-7-11,75.0,67.3,60.3,58.2,52.9,50.2,77,61,43,30.39,30.34,0,0,6,0.00
2013-7-12,77.4,68.1,58.5,57.5,50.6,44.9,77,56,32,30.35,30.31,0,0,2,0.00
2013-7-13,75.6,68.6,59.4,57.8,54.1,49.9,73,60,49,30.40,30.31,0,0,8,0.00
2013-7-14,70.7,62.8,57.2,53.8,51.4,49.3,75,67,53,30.40,30.29,0,0,6,0.00
2013-7-15,69.1,63.7,58.5,54.9,51.7,49.3,76,66,50,30.33,30.29,1,0,15,0.00
2013-7-16,71.6,65.6,59.0,54.1,51.9,50.2,73,62,48,30.32,30.29,0,0,8,0.00
2013-7-17,76.6,69.4,64.6,55.1,51.8,45.0,62,54,41,30.40,30.31,0,0,2,0.00
2013-7-18,80.1,71.7,64.6,57.5,49.7,45.9,73,47,31,30.43,30.39,0,0,7,0.00
2013-7-19,80.1,70.7,63.7,59.9,57.4,53.9,80,64,41,30.41,30.31,0,0,11,0.00
2013-7-20,77.2,69.9,63.3,58.6,56.3,53.8,73,63,51,30.32,30.24,0,0,8,0.00
2013-7-21,63.3,62.6,61.3,54.5,53.7,52.6,73,72,72,30.23,30.19,0,0,2,0.00
2013-12-12,52.9,52.4,50.7,52.6,52.1,50.4,99,99,99,29.72,29.69,12,9,20,0.00
2013-12-13,54.5,51.0,43.9,53.1,45.8,36.8,99,83,64,30.02,29.54,15,8,35,0.04
2013-12-14,55.8,50.6,44.6,49.8,44.6,36.7,89,80,69,30.03,29.55,26,11,43,0.58
2013-12-15,54.3,48.7,44.1,49.1,42.6,35.5,95,80,68,29.94,29.58,26,10,40,1.34
2013-12-16,51.4,44.1,41.2,44.2,37.5,34.4,90,78,69,30.04,29.59,10,5,29,0.11
2013-12-17,47.8,44.2,41.0,41.0,36.2,33.5,78,74,68,30.12,29.69,26,10,38,0.22
2013-12-18,51.1,47.7,40.6,50.2,44.2,34.0,98,88,69,29.69,28.78,26,14,46,2.16
2013-12-19,41.2,39.0,37.0,34.7,32.8,30.2,84,78,70,29.67,29.10,15,9,35,0.08
2013-12-20,53.8,46.8,38.2,46.6,40.0,33.2,85,77,71,29.85,29.48,21,10,46,0.32
2013-12-21,50.4,45.8,40.8,43.4,38.6,34.4,91,76,66,29.61,29.33,20,9,37,0.17
2013-12-22,43.4,39.7,35.8,35.4,33.1,30.8,86,77,69,29.66,29.42,18,9,38,0.06
2013-12-23,52.3,47.0,39.2,48.0,41.3,32.6,95,81,71,29.62,28.38,23,10,37,0.48
2013-12-24,45.1,41.4,39.2,36.1,31.2,26.1,84,67,54,28.71,28.42,20,10,48,0.51
2013-12-25,45.7,40.0,36.1,34.2,32.0,28.7,80,73,62,29.12,28.70,6,2,15,0.00
2013-12-26,48.2,41.5,36.7,46.8,36.3,31.7,96,82,72,29.33,28.49,29,8,49,5.98
2013-12-27,48.0,44.0,38.8,40.5,37.1,34.8,86,77,66,29.03,28.34,23,14,55,1.11
2013-12-28,43.5,39.6,37.6,36.3,34.4,32.6,85,82,74,29.65,29.03,15,4,23,0.00
2013-12-29,48.4,42.1,37.0,46.2,37.2,30.5,93,83,72,29.85,29.44,21,8,29,0.01
2013-12-30,48.9,44.5,41.0,46.9,41.4,37.7,94,89,81,29.61,29.22,17,7,34,0.10
2013-12-31,47.7,44.2,41.7,44.3,38.7,33.8,91,81,69,29.43,29.13,21,9,38,0.17
2014-1-1,49.5,44.2,41.9,47.2,40.5,36.4,95,87,74,29.24,28.59,24,9,37,0.62
2014-1-2,48.7,45.1,41.9,45.6,39.3,36.1,93,80,67,29.15,28.82,20,7,36,0.07